Latest Weather Observations for Glen Innes Airport

IDN60801

Issued at 5:04 pm EDT Friday 19 December 2014 (issued every 30 minutes, with the page automatically refreshed every 10 minutes)

About weather observations | Map of weather stations | Latest weather observations for NSW | Other Formats
Station Details ID: 056243 Name: GLEN INNES AIRPORT AWS Lat: -29.68 Lon: 151.69 Height: 1044.3 m
Data from the previous 72 hours. | See also: Recent months for locations in New South Wales
Date/Time
EDT
Temp
°C
App
Temp
°C
Dew
Point
Rel
Hum
%
Delta-T
°C
Wind Press
QNH
hPa
Press
MSL
hPa
Rain
since 9 am
mm
Dir
 
Spd
km/h
Gust
km/h
Spd
kts
Gust
kts
19/05:00pm 25.8 19.8 6.9 30 10.4 W 28 39 15 21 1014.5 1009.4 0.0
19/04:30pm 25.7 20.3 8.2 33 9.9 WSW 26 37 14 20 1014.6 1009.6 0.0
19/04:00pm 25.2 19.6 8.7 35 9.4 WSW 28 37 15 20 1014.7 1009.7 0.0
19/03:30pm 24.7 18.5 7.8 34 9.4 W 30 41 16 22 1015.0 1009.9 0.0
19/03:16pm 25.6 18.9 8.1 33 9.8 W 33 52 18 28 1015.1 1010.0 0.0
19/03:00pm 25.4 18.6 7.1 31 10.1 WSW 32 44 17 24 1015.1 1010.0 0.0
19/02:30pm 25.3 21.1 11.1 41 8.4 W 24 35 13 19 1015.4 1010.3 0.0
19/02:00pm 24.8 20.7 11.4 43 7.9 WSW 24 37 13 20 1015.6 1010.6 0.0
19/01:30pm 24.1 19.4 9.3 39 8.4 WSW 24 35 13 19 1016.0 1010.9 0.0
19/01:00pm 24.2 20.2 10.5 42 8.0 W 22 41 12 22 1016.2 1011.1 0.0
19/12:30pm 22.6 19.6 10.7 47 6.9 WNW 17 26 9 14 1016.4 1011.4 0.0
19/12:00pm 22.7 18.9 11.1 48 6.8 W 22 28 12 15 1016.4 1011.4 0.0
19/11:30am 21.7 18.8 12.8 57 5.3 W 20 30 11 16 1016.5 1011.5 0.0
19/11:00am 21.1 18.4 13.0 60 4.8 W 19 28 10 15 1016.4 1011.4 0.0
19/10:30am 20.2 17.9 14.1 68 3.7 W 19 24 10 13 1016.6 1011.6 0.0
19/10:00am 18.8 16.4 13.9 73 2.9 WNW 19 26 10 14 1016.7 1011.7 0.0
19/09:30am 17.7 15.5 13.4 76 2.6 WNW 17 24 9 13 1016.8 1011.8 0.0
19/09:00am 17.1 14.2 13.0 77 2.4 W 20 30 11 16 1016.7 1011.7 5.0
19/08:30am 15.9 12.3 13.2 84 1.6 W 24 33 13 18 1016.7 1011.7 5.0
19/08:00am 15.7 12.9 13.2 85 1.5 WNW 20 28 11 15 1016.6 1011.6 5.0
19/07:30am 14.9 13.7 12.8 87 1.2 WNW 11 15 6 8 1016.5 1011.5 5.0
19/07:00am 13.2 12.4 11.6 90 0.9 WNW 7 9 4 5 1016.3 1011.2 5.0
19/06:30am 11.5 10.8 10.2 92 0.7 WNW 4 6 2 3 1016.1 1011.0 5.0
19/06:00am 10.0 8.9 8.4 90 0.8 WNW 4 6 2 3 1015.7 1010.7 5.0
19/05:30am 10.2 8.9 9.1 93 0.6 WNW 6 6 3 3 1015.5 1010.5 5.0
19/05:00am 11.1 9.1 8.8 86 1.2 WNW 9 9 5 5 1015.5 1010.5 5.0
19/04:30am 11.6 10.3 9.2 85 1.3 WNW 6 7 3 4 1015.4 1010.3 5.0
19/04:00am 11.2 8.9 8.9 86 1.2 W 11 13 6 7 1015.4 1010.3 5.0
19/03:30am 12.0 9.4 9.4 84 1.4 WNW 13 17 7 9 1015.5 1010.5 5.0
19/03:00am 11.9 9.3 9.3 84 1.4 WNW 13 13 7 7 1015.5 1010.5 5.0
19/02:30am 12.7 11.6 10.1 84 1.4 WNW 6 7 3 4 1015.8 1010.8 5.0
19/02:00am 13.2 11.7 10.4 83 1.5 WNW 9 9 5 5 1015.6 1010.6 5.0
19/01:30am 13.9 12.8 10.5 80 1.9 W 7 9 4 5 1015.7 1010.7 5.0
19/01:00am 14.5 13.5 11.1 80 1.9 NW 7 11 4 6 1015.6 1010.6 5.0
19/12:30am 15.0 13.9 10.8 76 2.3 WNW 7 9 4 5 1015.6 1010.6 5.0
19/12:00am 15.4 13.5 10.6 73 2.7 WSW 11 11 6 6 1015.7 1010.7 5.0
 
Date/Time
EDT
Temp
°C
App
Temp
°C
Dew
Point
Rel
Hum
%
Delta-T
°C
Wind Press
QNH
hPa
Press
MSL
hPa
Rain
since 9 am
mm
Dir
 
Spd
km/h
Gust
km/h
Spd
kts
Gust
kts
18/11:30pm 16.2 14.2 10.3 68 3.3 WNW 11 15 6 8 1015.6 1010.6 5.0
18/11:00pm 16.9 13.9 10.5 66 3.6 NW 17 20 9 11 1015.8 1010.8 5.0
18/10:30pm 17.2 15.1 12.3 73 2.8 NNW 15 19 8 10 1015.8 1010.8 5.0
18/10:00pm 17.5 16.0 13.0 75 2.6 WNW 13 17 7 9 1016.0 1010.9 5.0
18/09:30pm 17.7 15.9 13.2 75 2.7 NNW 15 17 8 9 1015.4 1010.3 5.0
18/09:00pm 18.3 16.4 13.0 71 3.1 WNW 15 20 8 11 1015.3 1010.2 5.0
18/08:30pm 18.8 16.8 13.9 73 2.9 WNW 17 22 9 12 1014.8 1009.8 5.0
18/08:00pm 18.6 17.0 15.1 80 2.1 WNW 17 20 9 11 1014.8 1009.8 5.0
18/07:30pm 18.9 17.6 15.8 82 1.9 WNW 17 20 9 11 1014.3 1009.2 5.0
18/07:00pm 19.1 18.6 16.0 82 1.9 WNW 13 19 7 10 1014.0 1008.9 5.0
18/06:30pm 18.8 19.1 17.1 90 1.1 NNW 11 17 6 9 1013.4 1008.3 5.0
18/06:00pm 18.8 18.6 16.8 88 1.3 NNW 13 15 7 8 1013.4 1008.3 5.0
18/05:30pm 18.6 19.5 16.6 88 1.3 N 7 11 4 6 1013.1 1008.0 5.0
18/05:00pm 18.4 19.3 16.2 87 1.4 SW 6 13 3 7 1013.5 1008.4 5.0
18/04:30pm 18.1 16.7 16.9 93 0.8 WNW 20 28 11 15 1014.1 1009.0 5.0
18/04:24pm 17.9 16.0 16.8 93 0.7 WNW 22 30 12 16 1014.0 1008.9 4.8
18/04:00pm 17.7 11.5 16.0 90 1.1 W 43 67 23 36 1014.1 1009.0 2.2
18/03:53pm 21.0 17.8 16.2 74 3.0 NW 28 61 15 33 1013.0 1007.9 0.0
18/03:51pm 21.0 18.1 16.0 73 3.1 NW 26 39 14 21 1012.0 1006.8 0.0
18/03:30pm 23.9 18.4 14.6 56 5.8 NNW 37 56 20 30 1010.8 1005.6 0.0
18/03:26pm 24.8 20.0 14.6 53 6.4 NNW 33 52 18 28 1011.0 1005.8 0.0
18/03:00pm 26.4 22.3 13.9 46 7.8 NNW 28 39 15 21 1010.1 1004.9 0.0
18/02:51pm 26.8 22.6 13.5 44 8.2 NNW 28 46 15 25 1010.2 1005.0 0.0
18/02:30pm 28.2 24.9 15.1 44 8.3 NW 26 33 14 18 1011.0 1005.8 0.0
18/02:00pm 28.0 24.7 16.9 51 7.2 NNW 30 39 16 21 1012.1 1007.0 0.0
18/01:30pm 27.0 23.5 16.6 53 6.7 NNW 30 35 16 19 1013.0 1007.9 0.0
18/01:00pm 26.6 23.1 15.6 50 7.0 NW 28 35 15 19 1013.3 1008.2 0.0
18/12:30pm 26.6 23.2 15.9 51 6.8 NW 28 37 15 20 1013.5 1008.4 0.0
18/12:00pm 25.8 22.8 15.8 54 6.4 NW 26 33 14 18 1014.0 1008.9 0.0
18/11:30am 25.3 22.1 16.2 57 5.8 NW 28 37 15 20 1014.3 1009.2 0.0
18/11:00am 24.4 21.5 16.1 60 5.3 NW 26 33 14 18 1014.8 1009.8 0.0
18/10:30am 24.1 20.7 15.9 60 5.2 NW 28 35 15 19 1014.7 1009.7 0.0
18/10:00am 23.2 20.6 15.8 63 4.7 NNW 24 35 13 19 1014.6 1009.6 0.0
18/09:30am 21.8 20.5 15.9 69 3.7 N 17 30 9 16 1015.0 1009.9 0.0
18/09:00am 21.0 19.8 16.2 74 3.0 NNW 17 28 9 15 1015.6 1010.6 3.6
18/08:30am 20.7 20.2 15.9 74 3.0 N 13 20 7 11 1015.4 1010.3 3.6
18/08:00am 20.1 19.5 15.7 76 2.7 N 13 20 7 11 1015.3 1010.2 3.6
18/07:30am 19.0 18.9 15.9 82 1.9 NNE 11 19 6 10 1015.3 1010.2 3.6
18/07:00am 18.1 17.4 15.5 85 1.6 NNE 13 17 7 9 1015.2 1010.1 3.6
18/06:30am 17.8 17.8 15.1 84 1.7 NNE 9 15 5 8 1015.1 1010.0 3.6
18/06:00am 15.9 15.8 13.9 88 1.2 ENE 7 11 4 6 1014.3 1009.2 3.6
18/05:30am 15.9 15.4 13.7 87 1.3 SE 9 11 5 6 1014.3 1009.2 3.6
18/05:00am 15.6 15.0 13.6 88 1.2 E 9 11 5 6 1014.1 1009.0 3.6
18/04:30am 15.7 15.2 13.7 88 1.2 E 9 13 5 7 1013.9 1008.8 3.6
18/04:00am 15.6 14.7 13.8 89 1.1 ESE 11 11 6 6 1013.9 1008.8 3.6
18/03:30am 16.5 15.9 14.5 88 1.2 E 11 13 6 7 1014.0 1008.9 3.6
18/03:00am 16.2 15.7 13.7 85 1.5 E 9 9 5 5 1013.6 1008.5 3.6
18/02:30am 16.9 16.6 14.4 85 1.5 NE 9 15 5 8 1013.3 1008.2 3.6
18/02:00am 17.5 13.5 14.2 81 2.0 NE 28 33 15 18 1013.2 1008.1 3.6
18/01:30am 17.2 12.5 14.8 86 1.5 E 33 41 18 22 1013.1 1008.0 3.6
18/01:18am 17.6 15.5 15.2 86 1.5 ENE 20 35 11 19 1014.1 1009.0 3.6
18/01:00am 18.2 17.4 15.1 82 1.9 E 13 17 7 9 1016.1 1011.0 2.4
18/12:30am 18.2 16.5 14.7 80 2.1 SSE 17 26 9 14 1015.1 1010.0 1.8
18/12:00am 19.0 16.9 15.3 79 2.3 SSE 20 28 11 15 1015.1 1010.0 1.0
 
Date/Time
EDT
Temp
°C
App
Temp
°C
Dew
Point
Rel
Hum
%
Delta-T
°C
Wind Press
QNH
hPa
Press
MSL
hPa
Rain
since 9 am
mm
Dir
 
Spd
km/h
Gust
km/h
Spd
kts
Gust
kts
17/11:31pm 20.8 15.9 14.2 66 4.0 SW 33 57 18 31 1015.5 1010.5 0.0
17/11:30pm 21.0 16.3 14.2 65 4.1 SW 32 57 17 31 1015.7 1010.7 0.0
17/11:28pm 20.7 16.4 14.4 67 3.9 SW 30 57 16 31 1015.8 1010.8 0.0
17/11:00pm 19.8 17.3 15.2 75 2.8 SE 22 30 12 16 1014.0 1008.9 0.0
17/10:30pm 20.2 17.6 15.0 72 3.2 E 22 28 12 15 1013.6 1008.5 0.0
17/10:00pm 20.9 18.4 13.6 63 4.4 E 19 24 10 13 1014.0 1008.9 0.0
17/09:30pm 20.9 17.5 9.2 47 6.5 SE 17 20 9 11 1013.2 1008.1 0.0
17/09:00pm 19.7 17.6 9.9 53 5.5 SE 11 13 6 7 1012.9 1007.7 0.0
17/08:30pm 21.2 18.5 9.1 46 6.8 ESE 13 17 7 9 1012.5 1007.4 0.0
17/08:00pm 23.3 19.2 7.8 37 8.6 SSE 19 24 10 13 1012.0 1006.8 0.0
17/07:30pm 25.4 23.2 8.0 33 9.8 WSW 9 20 5 11 1011.4 1006.3 0.0
17/07:00pm 28.5 25.1 7.7 27 11.8 WNW 15 20 8 11 1011.0 1005.8 0.0
17/06:30pm 30.1 27.7 8.5 26 12.5 WNW 11 17 6 9 1010.4 1005.3 0.0
17/06:00pm 30.3 25.7 5.6 21 13.7 WNW 19 28 10 15 1010.3 1005.2 0.0
17/05:30pm 30.3 26.2 6.2 22 13.4 WNW 17 22 9 12 1010.2 1005.0 0.0
17/05:00pm 30.6 26.2 6.5 22 13.5 W 19 26 10 14 1010.2 1005.0 0.0
17/04:30pm 29.9 25.6 7.2 24 12.8 W 19 28 10 15 1010.4 1005.3 0.0
17/04:00pm 30.7 27.5 8.4 25 12.9 W 15 28 8 15 1010.8 1005.6 0.0
17/03:30pm 29.3 25.1 8.4 27 12.0 WNW 20 32 11 17 1011.1 1005.9 0.0
17/03:00pm 30.0 25.8 8.4 26 12.5 WNW 20 32 11 17 1011.4 1006.3 0.0
17/02:49pm 30.0 25.3 7.8 25 12.7 W 22 41 12 22 1011.5 1006.4 0.0
17/02:30pm 29.2 25.5 9.3 29 11.6 W 19 30 10 16 1011.7 1006.6 0.0
17/02:00pm 28.0 25.1 11.1 35 10.1 W 17 28 9 15 1012.0 1006.8 0.0
17/01:30pm 28.3 24.3 10.5 33 10.5 W 22 35 12 19 1012.2 1007.1 0.0
17/01:00pm 28.0 23.9 11.5 35 9.9 W 24 35 13 19 1012.4 1007.3 0.0
17/12:30pm 28.0 23.8 12.4 38 9.5 W 26 33 14 18 1012.6 1007.5 0.0
17/12:00pm 27.7 24.3 11.3 36 9.8 W 20 33 11 18 1012.6 1007.5 0.0
17/11:30am 26.9 24.3 13.3 43 8.4 WNW 19 28 10 15 1012.7 1007.6 0.0
17/11:00am 26.1 23.9 13.2 44 7.9 W 17 26 9 14 1012.6 1007.5 0.0
17/10:30am 25.0 22.9 13.5 48 7.0 NW 17 24 9 13 1012.6 1007.5 0.0
17/10:00am 24.3 22.6 14.7 55 6.0 NNW 17 26 9 14 1012.6 1007.5 0.0
17/09:30am 23.6 22.0 14.0 55 5.9 NNW 15 19 8 10 1012.6 1007.5 0.0
17/09:00am 22.9 21.6 13.7 56 5.6 WNW 13 19 7 10 1012.6 1007.5 3.6
17/08:30am 21.3 21.3 13.7 62 4.6 WNW 6 11 3 6 1012.6 1007.5 3.6
17/08:00am 20.0 20.0 13.7 67 3.8 ESE 6 7 3 4 1012.6 1007.5 3.6
17/07:30am 17.8 17.8 14.3 80 2.1 ESE 7 9 4 5 1012.3 1007.2 3.6
17/07:00am 15.7 15.5 13.5 87 1.3 ESE 7 9 4 5 1011.9 1006.7 3.6
17/06:30am 13.5 12.9 12.4 93 0.6 SE 7 9 4 5 1011.5 1006.4 3.6
17/06:00am 12.0 11.2 10.9 93 0.6 SE 6 7 3 4 1011.1 1005.9 3.6
17/05:30am 12.2 11.2 10.9 92 0.7 SSE 7 9 4 5 1010.6 1005.5 3.6
17/05:00am 12.5 11.6 11.2 92 0.7 SE 7 9 4 5 1010.2 1005.0 3.6
17/04:30am 12.9 12.0 11.3 90 0.9 ESE 7 9 4 5 1010.0 1004.8 3.6
17/04:00am 13.5 12.7 11.7 89 1.0 S 7 9 4 5 1009.9 1004.7 3.6
17/03:30am 14.4 14.6 11.9 85 1.4 NNW 2 7 1 4 1009.9 1004.7 3.6
17/03:00am 16.3 17.0 12.3 77 2.3 CALM 0 2 0 1 1009.6 1004.5 3.6
17/02:30am 17.4 16.4 12.3 72 3.0 N 9 13 5 7 1010.0 1004.8 3.6
17/02:00am 17.1 15.8 12.6 75 2.6 NNW 11 15 6 8 1010.2 1005.0 3.6
17/01:30am 17.2 15.6 12.7 75 2.6 NNW 13 15 7 8 1010.2 1005.0 3.6
17/01:00am 17.6 16.6 13.3 76 2.6 NNW 11 13 6 7 1010.6 1005.5 3.6
17/12:30am 17.5 16.9 13.6 78 2.3 N 9 11 5 6 1011.2 1006.1 3.6
17/12:00am 17.5 16.2 13.8 79 2.2 NNW 13 17 7 9 1012.1 1007.0 3.6
 
Date/Time
EDT
Temp
°C
App
Temp
°C
Dew
Point
Rel
Hum
%
Delta-T
°C
Wind Press
QNH
hPa
Press
MSL
hPa
Rain
since 9 am
mm
Dir
 
Spd
km/h
Gust
km/h
Spd
kts
Gust
kts
16/11:30pm 17.5 16.3 14.0 80 2.1 WNW 13 15 7 8 1012.2 1007.1 3.6
16/11:00pm 17.2 15.7 14.1 82 1.9 NW 15 19 8 10 1012.4 1007.3 3.6
16/10:30pm 16.9 16.9 15.1 89 1.1 WNW 9 13 5 7 1012.9 1007.7 3.6
16/10:00pm 17.1 17.8 15.6 91 0.9 WNW 6 9 3 5 1013.0 1007.9 3.4
16/09:30pm 16.7 18.0 15.1 90 1.0 WSW 2 9 1 5 1013.1 1008.0 3.2
16/09:00pm 16.8 17.0 14.8 88 1.2 N 7 15 4 8 1012.7 1007.6 3.2
16/08:30pm 16.5 16.8 15.0 91 0.9 SE 7 13 4 7 1012.9 1007.7 3.0
16/08:00pm 16.6 13.1 14.6 88 1.2 SW 26 37 14 20 1014.0 1008.9 2.4
16/07:30pm 17.0 11.1 14.8 87 1.3 WSW 39 70 21 38 1013.2 1008.1 0.8
16/07:24pm 17.2 8.8 14.5 84 1.6 WSW 52 74 28 40 1013.3 1008.2 0.2
16/07:18pm 18.4 12.1 12.4 68 3.5 WSW 37 74 20 40 1012.1 1007.0 0.0
16/07:16pm 20.6 15.8 11.5 56 5.3 W 28 74 15 40 1012.0 1006.8 0.0
16/07:14pm 24.0 20.3 10.3 42 7.9 W 20 56 11 30 1011.6 1006.5 0.0
16/07:00pm 24.9 23.4 10.4 40 8.5 NNW 9 11 5 6 1009.3 1004.1 0.0
16/06:30pm 25.6 23.3 10.6 39 8.8 NW 13 17 7 9 1009.1 1003.9 0.0
16/06:00pm 26.7 23.3 9.1 33 10.1 NW 17 24 9 13 1009.0 1003.8 0.0
16/05:30pm 27.3 23.2 8.7 31 10.6 WNW 20 28 11 15 1009.0 1003.8 0.0

Other Formats:

Comma delimited format used in spreadsheet applications
http://www.bom.gov.au/fwo/IDN60801/IDN60801.94588.axf

JavaScript Object Notation format (JSON) in row-major order
http://www.bom.gov.au/fwo/IDN60801/IDN60801.94588.json